DRRL weather

Tillabery Airport
Tillabery, Tillabéri Region, Niger

Public forecast

Using degrees Celsius for public forecast. Weather courtesy of forecast.io.

METAR (pilot weather report)

Report is more than 6 hours old.

Retrieved 2009/09/25 16:40 UTC (9 years ago):

DRRL 251640Z 26004KT 9999 FEW040CB BKN300

TAF (pilot weather forecast)

Closest forecast is Diori Hamani International Airport, 60.1 nm (111.2 km) SE. Retrieved 2019/02/16 12:21 UTC (41 minutes ago):

TAF DRRN 161100Z 1612/1718 08010KT 4500 DU NSC TEMPO 1617/1621 2500 TEMPO 1608/1611 08020KT 2000 BLDU